Time;durP1;ratioP1;P1;durP2;ratioP2;P2;SDS_P1;SDS_P2;PMS_P1;PMS_P2;Temp;Humidity;BMP_temperature;BMP_pressure;BME280_temperature;BME280_humidity;BME280_pressure;Samples;Min_cycle;Max_cycle;Signal;HPM_P1;HPM_P2
2023/03/10 00:01:40;;;;;;;35.33;6.47;;;;;;;12.97;88.90;98546.19;4924998;29;20150;-64
2023/03/10 00:04:08;;;;;;;40.00;6.07;;;;;;;12.94;87.38;98552.47;4915624;29;20066;-63
2023/03/10 00:06:37;;;;;;;35.15;6.53;;;;;;;13.02;86.47;98545.09;4904340;29;20059;-63
2023/03/10 00:09:05;;;;;;;36.88;6.72;;;;;;;12.95;86.10;98547.75;4921819;29;20044;-64
2023/03/10 00:11:32;;;;;;;44.60;6.78;;;;;;;12.75;85.71;98538.88;4921210;29;20056;-68
2023/03/10 00:14:00;;;;;;;47.25;7.20;;;;;;;12.82;85.21;98540.91;4921323;29;20052;-67
2023/03/10 00:16:28;;;;;;;32.38;6.15;;;;;;;13.04;84.07;98540.75;4920791;29;20052;-67
2023/03/10 00:18:56;;;;;;;38.45;7.07;;;;;;;12.79;84.16;98544.44;4905372;29;20059;-67
2023/03/10 00:21:26;;;;;;;36.95;6.28;;;;;;;12.87;83.52;98537.78;4921269;29;20052;-64
2023/03/10 00:23:53;;;;;;;35.78;6.70;;;;;;;12.87;83.58;98546.88;4920805;29;20060;-64
2023/03/10 00:26:22;;;;;;;40.40;6.93;;;;;;;12.76;83.39;98536.91;4905982;29;20059;-63
2023/03/10 00:28:49;;;;;;;33.22;6.75;;;;;;;12.75;84.01;98524.25;4925522;29;20067;-63
2023/03/10 00:31:20;;;;;;;38.65;6.97;;;;;;;12.88;83.49;98528.34;4920559;29;20071;-63
2023/03/10 00:33:48;;;;;;;43.83;6.10;;;;;;;12.76;83.07;98521.13;4910307;29;20389;-64
2023/03/10 00:36:17;;;;;;;31.90;6.40;;;;;;;13.14;81.75;98515.19;4903840;29;20054;-64
2023/03/10 00:38:47;;;;;;;44.88;6.22;;;;;;;13.08;81.65;98513.94;4905825;29;20056;-64
2023/03/10 00:41:18;;;;;;;41.58;6.78;;;;;;;12.97;82.21;98510.25;4921055;29;20040;-63
2023/03/10 00:43:46;;;;;;;33.67;6.13;;;;;;;13.11;80.75;98504.88;4939923;29;20407;-63
2023/03/10 00:46:13;;;;;;;43.05;7.13;;;;;;;13.08;81.30;98500.13;4925737;29;20051;-64
2023/03/10 00:48:41;;;;;;;34.25;7.22;;;;;;;13.08;81.11;98493.78;4940563;29;20054;-63
2023/03/10 00:51:08;;;;;;;31.88;6.60;;;;;;;13.05;80.74;98511.13;4934311;29;20144;-63
2023/03/10 00:53:38;;;;;;;33.75;6.75;;;;;;;13.04;80.42;98513.09;4921137;29;20060;-63
2023/03/10 00:56:17;;;;;;;37.03;5.82;;;;;;;12.68;81.88;98511.19;4921314;29;20059;-62
2023/03/10 00:58:45;;;;;;;33.80;5.75;;;;;;;12.72;82.00;98523.06;4922074;29;20060;-63
2023/03/10 01:01:19;;;;;;;23.10;4.30;;;;;;;12.76;81.40;98523.09;4911373;29;20051;-63
2023/03/10 01:03:50;;;;;;;34.65;5.75;;;;;;;12.53;82.79;98515.00;4888654;29;20055;-63
2023/03/10 01:06:18;;;;;;;35.92;6.45;;;;;;;12.51;83.02;98522.88;4910971;29;20059;-64
2023/03/10 01:08:46;;;;;;;23.52;4.30;;;;;;;12.63;83.21;98528.13;4910293;29;20508;-63
2023/03/10 01:11:18;;;;;;;29.48;5.35;;;;;;;12.46;83.11;98520.44;4918222;29;20052;-62
2023/03/10 01:13:46;;;;;;;23.65;4.55;;;;;;;12.06;83.96;98501.09;4921397;29;20066;-63
2023/03/10 01:16:14;;;;;;;26.90;4.95;;;;;;;12.08;84.42;98495.97;4907690;29;20048;-63
2023/03/10 01:18:42;;;;;;;21.80;4.63;;;;;;;11.85;84.33;98476.00;4940331;29;20055;-63
2023/03/10 01:21:23;;;;;;;19.25;3.92;;;;;;;12.04;84.31;98468.34;4925717;29;20040;-63
2023/03/10 01:23:50;;;;;;;21.20;3.80;;;;;;;12.03;84.09;98468.72;4921514;29;20067;-63
2023/03/10 01:26:18;;;;;;;22.75;4.07;;;;;;;11.99;83.53;98476.97;4922907;29;20048;-63
2023/03/10 01:28:49;;;;;;;20.42;4.25;;;;;;;11.97;82.93;98481.25;4905374;29;20075;-63
2023/03/10 01:31:17;;;;;;;19.63;4.03;;;;;;;11.79;84.08;98489.31;4907478;29;20048;-63
2023/03/10 01:33:45;;;;;;;22.30;3.85;;;;;;;11.92;83.73;98489.88;4936624;29;20055;-63
2023/03/10 01:36:18;;;;;;;22.33;3.65;;;;;;;11.77;82.83;98483.38;4897545;29;20048;-63
2023/03/10 01:38:47;;;;;;;20.40;3.72;;;;;;;11.55;82.84;98481.50;4888330;29;20423;-63
2023/03/10 01:41:18;;;;;;;21.60;4.93;;;;;;;11.65;82.60;98491.09;4918274;29;20504;-63
2023/03/10 01:43:48;;;;;;;18.92;3.90;;;;;;;11.92;81.04;98478.84;4921096;29;20052;-63
2023/03/10 01:46:30;;;;;;;20.75;4.00;;;;;;;11.52;80.46;98484.22;4917544;29;20063;-63
2023/03/10 01:49:35;;;;;;;23.67;3.92;;;;;;;11.65;80.64;98475.34;4929569;29;20048;-64
2023/03/10 01:52:07;;;;;;;17.38;3.22;;;;;;;11.88;79.54;98466.97;4892813;29;20055;-62
2023/03/10 01:54:39;;;;;;;20.33;4.10;;;;;;;11.76;79.67;98467.22;4922807;29;20389;-63
2023/03/10 01:57:08;;;;;;;25.85;4.05;;;;;;;12.02;79.04;98456.91;4919650;29;20059;-65
2023/03/10 01:59:38;;;;;;;26.92;4.05;;;;;;;12.09;78.15;98453.41;4903915;29;20098;-63
2023/03/10 02:02:06;;;;;;;17.92;3.58;;;;;;;12.10;78.06;98455.78;4918175;29;20055;-63
2023/03/10 02:04:35;;;;;;;22.38;4.20;;;;;;;12.08;77.53;98446.31;4906730;29;20054;-63
2023/03/10 02:07:04;;;;;;;23.65;4.10;;;;;;;12.14;77.42;98440.06;4902347;29;20056;-63
2023/03/10 02:09:33;;;;;;;20.50;3.67;;;;;;;12.12;76.98;98442.41;4925118;29;20396;-64
2023/03/10 02:12:02;;;;;;;20.48;4.40;;;;;;;11.96;77.68;98433.56;4913279;29;20056;-63
2023/03/10 02:14:31;;;;;;;22.58;4.68;;;;;;;12.14;77.18;98431.78;4918832;29;20068;-63
2023/03/10 02:16:58;;;;;;;23.33;4.20;;;;;;;12.33;76.29;98434.34;4919273;29;20539;-63
2023/03/10 02:19:44;;;;;;;26.63;4.50;;;;;;;12.20;76.30;98426.72;4920489;29;20067;-63
2023/03/10 02:22:14;;;;;;;33.90;4.50;;;;;;;12.08;76.69;98421.47;4901277;29;20060;-63
2023/03/10 02:24:51;;;;;;;22.73;4.63;;;;;;;11.96;76.55;98425.28;4903937;29;20060;-63
2023/03/10 02:27:23;;;;;;;30.27;5.13;;;;;;;12.10;76.49;98411.63;4918674;29;20067;-63
2023/03/10 02:29:57;;;;;;;26.50;4.63;;;;;;;12.10;76.35;98435.69;4885282;29;20508;-63
2023/03/10 02:32:34;;;;;;;21.85;4.53;;;;;;;12.01;76.27;98415.88;4924377;29;20058;-63
2023/03/10 02:35:02;;;;;;;;;;;;;;;12.01;76.59;98413.91;4922294;29;20048;-63
2023/03/10 02:37:33;;;;;;;26.30;4.85;;;;;;;12.13;75.61;98423.91;4917410;29;19927;-63
2023/03/10 02:40:03;;;;;;;24.08;5.25;;;;;;;12.12;75.93;98416.78;4917609;29;20048;-64
2023/03/10 02:42:33;;;;;;;25.60;5.30;;;;;;;12.17;74.95;98411.72;4927468;29;20107;-62
2023/03/10 02:45:02;;;;;;;37.05;5.47;;;;;;;12.03;75.57;98414.31;4918477;29;20068;-62
2023/03/10 02:47:32;;;;;;;34.65;5.20;;;;;;;12.35;74.83;98401.63;4930503;29;20067;-63
2023/03/10 02:49:59;;;;;;;26.42;5.53;;;;;;;12.38;73.57;98409.16;4902783;29;20374;-65
2023/03/10 02:52:32;;;;;;;29.95;4.80;;;;;;;12.26;74.03;98412.19;4917796;29;20063;-63
2023/03/10 02:55:00;;;;;;;26.63;4.22;;;;;;;12.12;74.49;98403.78;4919793;29;20052;-64
2023/03/10 02:57:27;;;;;;;17.48;3.53;;;;;;;12.19;74.50;98401.09;4919471;29;20096;-64
2023/03/10 02:59:55;;;;;;;23.27;4.43;;;;;;;12.03;75.12;98400.53;4918832;29;20052;-64
2023/03/10 03:02:22;;;;;;;15.90;3.28;;;;;;;12.09;74.41;98390.75;4918574;29;20492;-64
2023/03/10 03:04:50;;;;;;;18.35;3.30;;;;;;;12.12;74.35;98402.97;4903378;29;20047;-64
2023/03/10 03:07:18;;;;;;;15.95;3.13;;;;;;;11.98;72.97;98397.31;4915358;29;20056;-63
2023/03/10 03:09:45;;;;;;;16.50;3.40;;;;;;;12.11;73.05;98395.88;4938193;29;20048;-63
2023/03/10 03:12:13;;;;;;;16.08;2.70;;;;;;;11.92;73.22;98393.31;4921050;29;20052;-63
2023/03/10 03:14:40;;;;;;;18.52;3.03;;;;;;;11.75;74.56;98391.94;4902820;29;20055;-64
2023/03/10 03:17:08;;;;;;;19.75;3.55;;;;;;;11.73;74.90;98386.03;4925679;29;20050;-63
2023/03/10 03:19:35;;;;;;;19.77;3.22;;;;;;;11.79;75.11;98390.03;4920044;29;20388;-64
2023/03/10 03:22:03;;;;;;;16.50;3.22;;;;;;;11.64;75.67;98385.53;4917890;29;20049;-63
2023/03/10 03:24:31;;;;;;;18.35;3.58;;;;;;;11.82;75.84;98385.75;4931999;29;20067;-63
2023/03/10 03:26:59;;;;;;;18.70;3.42;;;;;;;11.86;75.39;98392.88;4921545;29;20059;-63
2023/03/10 03:29:28;;;;;;;21.67;3.65;;;;;;;11.78;77.02;98390.41;4928467;29;20423;-64
2023/03/10 03:31:55;;;;;;;19.40;3.80;;;;;;;11.64;78.16;98387.47;4937409;29;20044;-63
2023/03/10 03:34:28;;;;;;;17.58;2.88;;;;;;;11.65;79.12;98389.06;4910927;29;20407;-63
2023/03/10 03:36:59;;;;;;;20.98;3.90;;;;;;;12.02;78.00;98400.91;4917796;29;20052;-63
2023/03/10 03:39:33;;;;;;;17.70;3.30;;;;;;;11.81;78.66;98390.44;4906894;29;20064;-63
2023/03/10 03:42:04;;;;;;;20.75;3.88;;;;;;;11.57;79.67;98390.94;4920577;29;20076;-63
2023/03/10 03:44:41;;;;;;;19.02;3.97;;;;;;;11.47;80.89;98388.06;4937387;29;20050;-63
2023/03/10 03:47:09;;;;;;;24.45;4.47;;;;;;;11.49;81.37;98391.25;4906576;29;20106;-63
2023/03/10 03:49:37;;;;;;;23.02;4.65;;;;;;;11.47;81.52;98390.81;4939977;29;20055;-64
2023/03/10 03:52:06;;;;;;;21.30;4.72;;;;;;;11.75;80.41;98389.19;4907938;29;20052;-64
2023/03/10 03:54:34;;;;;;;24.35;5.00;;;;;;;11.64;81.09;98398.50;4929172;29;20166;-63
2023/03/10 03:57:01;;;;;;;26.55;4.75;;;;;;;11.55;81.16;98398.00;4930886;29;20044;-63
2023/03/10 03:59:29;;;;;;;25.83;5.07;;;;;;;11.82;81.21;98403.06;4921639;29;20044;-63
2023/03/10 04:01:56;;;;;;;25.88;4.55;;;;;;;11.68;81.64;98399.38;4919904;29;20052;-63
2023/03/10 04:04:24;;;;;;;29.45;5.32;;;;;;;11.45;82.73;98390.38;4921582;29;20059;-64
2023/03/10 04:06:52;;;;;;;23.50;4.38;;;;;;;11.63;82.82;98394.16;4920051;29;20052;-64
2023/03/10 04:09:20;;;;;;;25.85;5.05;;;;;;;11.69;82.00;98392.66;4923281;29;20059;-64
2023/03/10 04:11:47;;;;;;;29.65;5.55;;;;;;;11.78;81.90;98393.97;4923021;29;20047;-64
2023/03/10 04:14:15;;;;;;;33.80;5.68;;;;;;;11.86;80.83;98403.09;4939486;29;20063;-63
2023/03/10 04:16:43;;;;;;;23.23;5.28;;;;;;;11.90;81.45;98404.75;4921282;29;20539;-64
2023/03/10 04:19:11;;;;;;;30.20;5.50;;;;;;;11.81;82.34;98403.44;4921558;29;20052;-63
2023/03/10 04:21:42;;;;;;;29.63;5.15;;;;;;;11.57;84.17;98393.69;4909915;29;20045;-63
2023/03/10 04:24:11;;;;;;;26.55;4.80;;;;;;;11.59;84.86;98401.59;4902866;29;20056;-63
2023/03/10 04:26:38;;;;;;;35.22;5.13;;;;;;;11.67;84.44;98395.00;4912345;29;20048;-62
2023/03/10 04:29:06;;;;;;;19.63;3.45;;;;;;;11.55;85.07;98384.19;4935581;29;20051;-63
2023/03/10 04:31:36;;;;;;;24.83;4.72;;;;;;;11.38;85.41;98391.88;4911239;29;20051;-63
2023/03/10 04:34:05;;;;;;;30.23;4.82;;;;;;;11.24;85.99;98386.19;4902174;29;20408;-63
2023/03/10 04:36:33;;;;;;;24.48;4.03;;;;;;;11.38;85.16;98382.84;4919827;29;20048;-66
2023/03/10 04:39:03;;;;;;;20.53;3.43;;;;;;;11.20;84.78;98392.84;4903339;29;20064;-63
2023/03/10 04:41:31;;;;;;;21.02;4.03;;;;;;;11.36;85.30;98387.94;4921917;29;20048;-62
2023/03/10 04:43:59;;;;;;;19.50;4.10;;;;;;;11.12;85.20;98386.41;4940191;29;20066;-63
2023/03/10 04:46:30;;;;;;;23.38;3.70;;;;;;;11.27;84.80;98370.88;4912853;29;20044;-63
2023/03/10 04:48:58;;;;;;;;;;;;;;;11.45;83.76;98382.13;4926339;29;20063;-63
2023/03/10 04:51:25;;;;;;;13.02;2.78;;;;;;;11.25;83.03;98387.78;4919903;29;19922;-63
2023/03/10 04:53:56;;;;;;;16.65;3.25;;;;;;;11.18;82.73;98384.94;4920615;29;20500;-63
2023/03/10 04:56:27;;;;;;;17.38;3.30;;;;;;;11.16;82.81;98395.53;4910634;29;20056;-63
2023/03/10 04:58:55;;;;;;;17.00;2.45;;;;;;;11.32;82.16;98398.91;4910605;29;20048;-63
2023/03/10 05:01:24;;;;;;;17.25;2.70;;;;;;;11.35;82.56;98400.09;4917302;29;20062;-64
2023/03/10 05:04:02;;;;;;;15.48;2.83;;;;;;;11.43;81.91;98401.00;4870958;29;20060;-63
2023/03/10 05:06:30;;;;;;;13.13;2.65;;;;;;;11.23;82.95;98414.91;4905324;29;20052;-63
2023/03/10 05:09:30;;;;;;;16.08;2.90;;;;;;;11.08;82.90;98402.13;4918027;29;20067;-63
2023/03/10 05:11:59;;;;;;;13.70;2.75;;;;;;;11.06;83.45;98414.69;4904690;29;20040;-63
2023/03/10 05:14:30;;;;;;;9.88;1.73;;;;;;;10.90;83.34;98409.34;4921353;29;20054;-62
2023/03/10 05:16:57;;;;;;;9.30;1.80;;;;;;;10.88;83.41;98416.41;4910105;29;20048;-62
2023/03/10 05:19:27;;;;;;;10.00;1.65;;;;;;;10.83;83.49;98405.69;4903703;29;20388;-63
2023/03/10 05:21:56;;;;;;;11.13;2.03;;;;;;;10.93;83.36;98410.56;4932839;29;20412;-63
2023/03/10 05:24:24;;;;;;;10.95;1.92;;;;;;;11.04;82.87;98409.53;4939934;29;20522;-63
2023/03/10 05:26:51;;;;;;;12.00;1.83;;;;;;;10.93;82.34;98414.09;4939111;29;20385;-63
2023/03/10 05:29:19;;;;;;;10.23;1.88;;;;;;;10.96;82.96;98415.31;4925723;29;20067;-62
2023/03/10 05:31:55;;;;;;;8.18;1.67;;;;;;;10.95;82.87;98433.00;4888770;29;20040;-62
2023/03/10 05:34:29;;;;;;;7.00;1.50;;;;;;;11.15;82.17;98426.22;4889448;29;20067;-64
2023/03/10 05:36:59;;;;;;;8.30;1.85;;;;;;;11.15;82.65;98427.03;4917535;29;20063;-63
2023/03/10 05:39:27;;;;;;;9.10;1.77;;;;;;;11.13;82.56;98421.09;4902388;29;20060;-63
2023/03/10 05:41:58;;;;;;;9.30;1.63;;;;;;;10.95;83.41;98425.53;4927557;29;20070;-64
2023/03/10 05:44:28;;;;;;;8.43;1.15;;;;;;;10.75;84.76;98417.75;4926386;29;20048;-63
2023/03/10 05:46:55;;;;;;;7.43;1.00;;;;;;;10.90;84.54;98419.56;4920080;29;20059;-67
2023/03/10 05:49:23;;;;;;;6.82;1.10;;;;;;;10.73;85.16;98423.63;4922957;29;20067;-67
2023/03/10 05:51:51;;;;;;;4.97;1.10;;;;;;;10.61;86.51;98410.09;4916784;29;20040;-70
2023/03/10 05:54:19;;;;;;;6.38;1.45;;;;;;;10.87;86.11;98426.63;4905615;29;20055;-70
2023/03/10 05:56:47;;;;;;;7.60;1.83;;;;;;;11.01;85.17;98417.75;4907916;29;20056;-69
2023/03/10 05:59:14;;;;;;;7.78;1.27;;;;;;;10.96;84.70;98418.88;4919433;29;20106;-69
2023/03/10 06:01:42;;;;;;;8.18;1.20;;;;;;;10.96;84.92;98421.63;4908577;29;20048;-69
2023/03/10 06:04:09;;;;;;;7.30;1.40;;;;;;;11.07;84.60;98428.06;4918240;29;20043;-63
2023/03/10 06:06:37;;;;;;;5.78;1.20;;;;;;;10.97;84.35;98423.22;4896321;29;20052;-63
2023/03/10 06:09:05;;;;;;;7.88;1.15;;;;;;;10.95;84.47;98433.81;4881699;29;20056;-70
2023/03/10 06:11:32;;;;;;;7.97;1.70;;;;;;;10.99;85.06;98447.63;4908913;29;20408;-70
2023/03/10 06:14:00;;;;;;;7.00;1.20;;;;;;;10.72;85.65;98455.06;4920647;29;20048;-71
2023/03/10 06:16:27;;;;;;;8.32;1.58;;;;;;;10.66;85.98;98434.53;4927226;29;20067;-71
2023/03/10 06:18:55;;;;;;;5.53;1.08;;;;;;;10.53;86.68;98443.38;4903385;29;20054;-72
2023/03/10 06:21:24;;;;;;;4.97;1.17;;;;;;;10.63;87.08;98445.50;4906069;29;20712;-71
2023/03/10 06:23:51;;;;;;;4.45;1.02;;;;;;;10.81;86.33;98455.63;4903014;29;20040;-71
2023/03/10 06:26:19;;;;;;;3.88;1.05;;;;;;;10.55;86.83;98461.09;4901086;29;20055;-74
2023/03/10 06:28:46;;;;;;;2.42;0.82;;;;;;;10.22;89.05;98451.88;4901727;29;20059;-65
2023/03/10 06:31:20;;;;;;;3.72;0.70;;;;;;;10.30;90.17;98486.59;4892136;29;20063;-63
2023/03/10 06:33:47;;;;;;;5.85;0.82;;;;;;;10.49;91.24;98483.78;4923884;29;20052;-65
2023/03/10 06:36:16;;;;;;;4.95;0.90;;;;;;;10.30;92.39;98483.84;4916584;29;20055;-69
2023/03/10 06:38:43;;;;;;;7.13;0.80;;;;;;;10.34;92.54;98479.97;4915840;29;20056;-65
2023/03/10 06:41:11;;;;;;;5.78;0.90;;;;;;;10.41;92.76;98493.88;4894738;29;20395;-64
2023/03/10 06:43:39;;;;;;;3.30;0.80;;;;;;;10.37;91.98;98497.72;4932298;29;20064;-66
2023/03/10 06:46:08;;;;;;;4.05;0.85;;;;;;;10.17;91.58;98492.28;4922595;29;20059;-64
2023/03/10 06:48:38;;;;;;;1.90;0.60;;;;;;;10.12;92.63;98498.06;4919971;29;20412;-64
2023/03/10 06:51:10;;;;;;;4.38;1.38;;;;;;;10.19;94.28;98500.16;4917327;29;20811;-62
2023/03/10 06:53:37;;;;;;;4.57;0.80;;;;;;;10.49;94.02;98501.09;4897071;29;20056;-63
2023/03/10 06:56:13;;;;;;;5.18;0.82;;;;;;;10.56;92.67;98511.44;4923803;29;20052;-64
2023/03/10 06:58:41;;;;;;;2.63;0.77;;;;;;;10.59;91.79;98519.75;4917157;29;20052;-63
2023/03/10 07:01:25;;;;;;;2.85;0.80;;;;;;;11.02;90.60;98533.06;4911319;29;20056;-64
2023/03/10 07:03:53;;;;;;;5.15;1.02;;;;;;;10.48;91.09;98529.00;4920985;29;20071;-65
2023/03/10 07:06:21;;;;;;;4.38;0.60;;;;;;;10.74;91.53;98535.34;4917258;29;20059;-66
2023/03/10 07:08:49;;;;;;;4.05;0.82;;;;;;;10.68;90.28;98544.28;4923631;29;20044;-65
2023/03/10 07:11:17;;;;;;;1.85;0.70;;;;;;;10.48;90.49;98543.53;4917021;29;20059;-65
2023/03/10 07:13:44;;;;;;;1.85;0.57;;;;;;;10.46;91.79;98565.13;4921364;29;20052;-65
2023/03/10 07:16:11;;;;;;;6.45;0.98;;;;;;;10.58;92.41;98569.69;4913045;29;20404;-66
2023/03/10 07:18:39;;;;;;;3.05;0.60;;;;;;;10.69;91.85;98587.97;4902977;29;20531;-64
2023/03/10 07:21:11;;;;;;;0.95;0.40;;;;;;;10.47;92.40;98587.94;4904426;29;20063;-64
2023/03/10 07:23:38;;;;;;;2.13;0.70;;;;;;;10.35;91.99;98591.66;4913388;29;20055;-65
2023/03/10 07:26:07;;;;;;;3.28;0.80;;;;;;;10.47;93.48;98613.53;4914666;29;20480;-64
2023/03/10 07:28:36;;;;;;;2.95;0.70;;;;;;;10.43;92.89;98611.84;4919681;29;20051;-63
2023/03/10 07:31:09;;;;;;;1.88;0.40;;;;;;;10.36;92.69;98609.75;4927183;29;20047;-65
2023/03/10 07:33:37;;;;;;;1.00;0.47;;;;;;;10.43;92.35;98617.34;4904299;29;20040;-65
2023/03/10 07:36:11;;;;;;;2.58;0.50;;;;;;;10.44;91.49;98619.75;4900804;29;20055;-64
2023/03/10 07:38:39;;;;;;;3.00;0.85;;;;;;;10.53;91.85;98619.53;4904606;29;20048;-65
2023/03/10 07:41:14;;;;;;;3.03;0.60;;;;;;;10.06;91.71;98638.94;4913576;29;20048;-64
2023/03/10 07:43:42;;;;;;;1.67;0.60;;;;;;;9.96;93.38;98645.03;4921073;29;20063;-65
2023/03/10 07:46:11;;;;;;;1.73;0.60;;;;;;;10.00;92.74;98665.16;4920702;29;20060;-65
2023/03/10 07:48:39;;;;;;;;;;;;;;;9.65;92.02;98669.84;4921852;29;20048;-64
2023/03/10 07:51:07;;;;;;;1.77;0.52;;;;;;;9.72;91.21;98673.56;4922297;29;19923;-63
2023/03/10 07:53:35;;;;;;;2.55;0.60;;;;;;;9.74;90.26;98693.25;4903506;29;20056;-64
2023/03/10 07:56:07;;;;;;;2.88;0.60;;;;;;;9.61;89.03;98712.94;4906001;29;20066;-64
2023/03/10 07:58:35;;;;;;;4.85;0.75;;;;;;;9.62;89.10;98709.03;4888969;29;20420;-64
2023/03/10 08:01:04;;;;;;;4.57;0.77;;;;;;;9.60;88.74;98722.34;4915554;29;20085;-64
2023/03/10 08:03:32;;;;;;;3.10;0.77;;;;;;;9.63;88.01;98710.63;4921359;29;20048;-65
2023/03/10 08:06:01;;;;;;;5.95;0.80;;;;;;;9.75;87.22;98705.84;4906345;29;20063;-67
2023/03/10 08:08:28;;;;;;;9.35;0.90;;;;;;;9.64;85.56;98759.75;4916815;29;20051;-64
2023/03/10 08:11:05;;;;;;;5.30;0.60;;;;;;;9.66;85.28;98751.16;4900177;29;20071;-65
2023/03/10 08:13:32;;;;;;;3.60;0.77;;;;;;;9.65;85.65;98763.28;4921077;29;20059;-65
2023/03/10 08:16:00;;;;;;;2.45;0.80;;;;;;;9.79;85.26;98758.16;4902598;29;20055;-64
2023/03/10 08:18:30;;;;;;;7.38;0.95;;;;;;;9.78;84.42;98795.06;4911123;29;20059;-63
2023/03/10 08:20:58;;;;;;;4.57;1.00;;;;;;;9.90;84.43;98789.47;4919118;29;20056;-63
2023/03/10 08:23:25;;;;;;;5.10;0.68;;;;;;;9.88;83.61;98792.56;4908350;29;20052;-65
2023/03/10 08:25:52;;;;;;;2.88;0.68;;;;;;;9.90;84.72;98801.25;4901151;29;20051;-65
2023/03/10 08:28:20;;;;;;;4.72;1.35;;;;;;;9.69;85.56;98821.91;4922168;29;20052;-62
2023/03/10 08:30:47;;;;;;;3.95;0.90;;;;;;;9.39;87.32;98842.69;4921362;29;20044;-63
2023/03/10 08:33:30;;;;;;;3.88;0.90;;;;;;;9.37;89.21;98845.78;4914680;29;20762;-64
2023/03/10 08:36:08;;;;;;;5.85;0.82;;;;;;;9.45;88.95;98846.81;4905930;29;20412;-64
2023/03/10 08:38:36;;;;;;;2.72;0.77;;;;;;;9.39;88.37;98864.69;4909951;29;20405;-64
2023/03/10 08:41:12;;;;;;;4.78;1.02;;;;;;;9.44;86.81;98873.47;4917365;29;20440;-63
2023/03/10 08:43:39;;;;;;;5.22;1.33;;;;;;;9.34;87.17;98876.72;4919362;29;20059;-65
2023/03/10 08:46:08;;;;;;;4.95;1.15;;;;;;;9.40;86.66;98869.00;4917611;29;20044;-62
2023/03/10 08:48:36;;;;;;;4.75;0.80;;;;;;;9.30;87.61;98880.50;4896008;29;20171;-64
2023/03/10 08:51:04;;;;;;;6.47;1.10;;;;;;;9.56;87.52;98905.59;4898737;29;20048;-64
2023/03/10 08:53:35;;;;;;;4.82;1.02;;;;;;;9.51;85.79;98895.66;4921353;29;20047;-64
2023/03/10 08:56:04;;;;;;;;;;;;;;;9.55;84.88;98910.31;4903508;29;20060;-67
2023/03/10 08:58:32;;;;;;;6.72;1.10;;;;;;;9.89;84.69;98917.91;4918228;29;19934;-67
2023/03/10 09:01:00;;;;;;;5.18;1.30;;;;;;;9.86;83.18;98910.38;4913851;29;20066;-67
2023/03/10 09:03:27;;;;;;;8.18;1.00;;;;;;;9.64;81.88;98916.41;4919722;29;20048;-66
2023/03/10 09:05:58;;;;;;;5.38;1.38;;;;;;;9.74;82.13;98904.94;4916896;29;20052;-65
2023/03/10 09:08:25;;;;;;;3.60;1.15;;;;;;;10.13;78.85;98916.97;4917219;29;20075;-63
2023/03/10 09:10:54;;;;;;;5.05;1.00;;;;;;;9.70;80.16;98937.03;4915405;29;20059;-62
2023/03/10 09:13:21;;;;;;;6.00;1.52;;;;;;;9.50;81.99;98942.72;4918851;29;20055;-63
2023/03/10 09:15:49;;;;;;;5.55;1.17;;;;;;;9.46;81.80;98945.38;4914396;29;20059;-69
2023/03/10 09:18:16;;;;;;;7.57;1.58;;;;;;;9.30;82.72;98963.75;4919441;29;20044;-62
2023/03/10 09:20:45;;;;;;;7.53;1.80;;;;;;;9.41;82.38;98978.59;4917898;29;20052;-64
2023/03/10 09:23:13;;;;;;;2.88;0.90;;;;;;;9.35;82.63;98993.72;4917980;29;20059;-63
2023/03/10 09:25:41;;;;;;;4.78;1.23;;;;;;;9.12;81.54;99002.81;4917406;29;20060;-63
2023/03/10 09:28:10;;;;;;;5.80;1.10;;;;;;;9.13;82.13;99019.72;4921137;29;20055;-62
2023/03/10 09:30:39;;;;;;;6.13;1.35;;;;;;;9.13;82.56;98998.91;4900338;29;20052;-63
2023/03/10 09:33:13;;;;;;;5.93;1.15;;;;;;;9.02;80.71;99046.06;4917364;29;20055;-62
2023/03/10 09:35:40;;;;;;;5.18;1.30;;;;;;;9.10;81.40;99036.09;4915211;29;20056;-64
2023/03/10 09:38:24;;;;;;;4.72;1.10;;;;;;;9.00;80.32;99053.84;4918910;29;20065;-68
2023/03/10 09:41:12;;;;;;;7.45;1.58;;;;;;;9.06;80.41;99057.16;4917489;29;20110;-68
2023/03/10 09:43:49;;;;;;;9.32;1.60;;;;;;;9.14;80.28;99053.50;4918460;29;20055;-69
2023/03/10 09:46:25;;;;;;;7.80;1.30;;;;;;;9.30;77.61;99056.34;4919189;29;20056;-67
2023/03/10 09:49:00;;;;;;;11.15;1.50;;;;;;;9.22;77.73;99068.25;4918508;29;20511;-68
2023/03/10 09:51:28;;;;;;;5.40;1.42;;;;;;;9.16;76.50;99084.16;4914777;29;20083;-73
2023/03/10 09:54:02;;;;;;;5.57;1.45;;;;;;;9.23;76.40;99100.88;4919205;29;20409;-70
2023/03/10 09:56:33;;;;;;;8.93;1.90;;;;;;;9.02;75.93;99091.94;4917210;29;20499;-68
2023/03/10 09:59:10;;;;;;;10.43;2.22;;;;;;;9.02;76.33;99105.66;4924925;29;20059;-68
2023/03/10 10:01:43;;;;;;;11.52;1.98;;;;;;;9.21;74.27;99110.59;4917350;29;20052;-69
2023/03/10 10:04:14;;;;;;;10.68;1.80;;;;;;;9.09;74.02;99150.66;4902317;29;20055;-68
2023/03/10 10:06:45;;;;;;;5.88;1.25;;;;;;;9.05;74.86;99137.94;4914492;29;20509;-68
2023/03/10 10:09:21;;;;;;;12.77;2.55;;;;;;;9.10;74.49;99152.25;4916115;29;20067;-68
2023/03/10 10:11:49;;;;;;;13.50;2.20;;;;;;;8.91;72.95;99134.72;4895779;29;20519;-68
2023/03/10 10:14:21;;;;;;;9.50;2.75;;;;;;;9.11;72.75;99161.31;4920098;29;20113;-70
2023/03/10 10:17:23;;;;;;;;;;;;;;;8.99;72.14;99177.75;4916317;29;20044;-68
2023/03/10 10:19:51;;;;;;;11.35;1.85;;;;;;;9.02;72.45;99191.63;4907182;29;19930;-68
2023/03/10 10:22:24;;;;;;;9.77;2.10;;;;;;;9.12;73.03;99184.09;4897838;29;20056;-69
2023/03/10 10:25:11;;;;;;;11.20;2.28;;;;;;;9.33;73.28;99226.81;4899351;29;20056;-68
2023/03/10 10:27:40;;;;;;;13.77;2.55;;;;;;;9.00;72.95;99218.63;4899768;29;20158;-68
2023/03/10 10:30:35;;;;;;;14.38;2.85;;;;;;;8.87;72.84;99219.69;4916756;29;20408;-68
2023/03/10 10:33:13;;;;;;;12.82;2.15;;;;;;;8.83;72.04;99239.94;4921165;29;20048;-68
2023/03/10 10:36:04;;;;;;;16.13;2.85;;;;;;;8.77;71.28;99231.13;4916900;29;20052;-68
2023/03/10 10:38:32;;;;;;;11.02;2.10;;;;;;;8.74;67.42;99212.59;4917089;29;20070;-71
2023/03/10 10:41:08;;;;;;;13.02;2.33;;;;;;;8.63;66.72;99244.31;4916500;29;20059;-69
2023/03/10 10:43:42;;;;;;;14.45;2.63;;;;;;;8.72;66.04;99256.03;4914020;29;20060;-69
2023/03/10 10:46:12;;;;;;;14.73;2.20;;;;;;;8.80;65.69;99257.09;4915494;29;20044;-68
2023/03/10 10:48:45;;;;;;;12.20;2.30;;;;;;;9.05;65.52;99276.06;4919644;29;20063;-69
2023/03/10 10:51:27;;;;;;;9.93;1.98;;;;;;;9.12;64.34;99264.53;4915290;29;20053;-68
2023/03/10 10:53:57;;;;;;;15.75;2.22;;;;;;;8.81;63.21;99280.66;4919082;29;20044;-70
2023/03/10 10:56:27;;;;;;;15.55;2.10;;;;;;;8.83;62.56;99306.66;4917811;29;20044;-68
2023/03/10 10:59:17;;;;;;;21.25;2.53;;;;;;;8.99;64.18;99282.94;4919144;29;20056;-70
2023/03/10 11:01:56;;;;;;;16.38;2.85;;;;;;;9.01;63.57;99312.81;4896713;29;20063;-69
2023/03/10 11:04:26;;;;;;;13.30;2.83;;;;;;;9.13;64.50;99310.09;4919748;29;20052;-68
2023/03/10 11:07:16;;;;;;;14.48;3.70;;;;;;;9.04;66.28;99332.16;4916237;29;20660;-67
2023/03/10 11:09:43;;;;;;;17.95;3.58;;;;;;;8.93;66.71;99324.66;4920186;29;20055;-68
2023/03/10 11:12:20;;;;;;;18.92;2.88;;;;;;;8.89;66.00;99327.25;4915122;29;20055;-70
2023/03/10 11:15:07;;;;;;;12.35;2.22;;;;;;;9.22;66.62;99332.00;4920230;29;20048;-68
2023/03/10 11:17:43;;;;;;;18.92;3.03;;;;;;;9.17;65.37;99343.19;4918083;29;20060;-69
2023/03/10 11:20:41;;;;;;;14.02;3.00;;;;;;;9.13;65.64;99345.00;4902135;29;20708;-68
2023/03/10 11:23:25;;;;;;;14.05;2.88;;;;;;;9.08;63.63;99363.28;4907555;29;20063;-69
2023/03/10 11:26:14;;;;;;;18.20;2.60;;;;;;;9.14;62.54;99358.38;4900147;29;20047;-68
2023/03/10 11:28:54;;;;;;;14.90;2.90;;;;;;;9.27;63.52;99349.06;4920454;29;20052;-69
2023/03/10 11:31:29;;;;;;;;;;;;;;;9.13;61.30;99372.47;4913266;29;20060;-69
2023/03/10 11:34:17;;;;;;;50.13;12.23;;;;;;;9.17;61.32;99370.66;4917316;29;19974;-68
2023/03/10 11:36:50;;;;;;;34.72;9.48;;;;;;;9.16;61.19;99382.78;4917151;29;20060;-69
2023/03/10 11:39:47;;;;;;;47.95;11.80;;;;;;;9.18;62.09;99388.72;4918954;29;20052;-69
2023/03/10 11:42:35;;;;;;;18.15;5.03;;;;;;;9.27;62.98;99393.03;4911546;29;20074;-68
2023/03/10 11:45:28;;;;;;;24.30;5.80;;;;;;;9.38;62.90;99396.94;4910185;29;20051;-69
2023/03/10 11:48:17;;;;;;;24.15;5.05;;;;;;;9.50;62.67;99390.72;4898450;29;20056;-68
2023/03/10 11:50:48;;;;;;;21.95;5.07;;;;;;;9.13;60.20;99410.91;4906771;29;20064;-70
2023/03/10 11:53:16;;;;;;;;;;;;;;;9.18;61.53;99425.25;4921099;29;20503;-67